sensor_id;sensor_type;location;lat;lon;timestamp;temperature;humidity
51486;DHT22;37565;51.352;6.412;2023-02-22T00:01:54;19.00;98.50
51486;DHT22;37565;51.352;6.412;2023-02-22T00:04:47;19.00;98.50
51486;DHT22;37565;51.352;6.412;2023-02-22T00:07:15;19.00;98.50
51486;DHT22;37565;51.352;6.412;2023-02-22T00:09:43;19.00;98.40
51486;DHT22;37565;51.352;6.412;2023-02-22T00:12:11;19.00;98.40
51486;DHT22;37565;51.352;6.412;2023-02-22T00:14:39;19.00;98.40
51486;DHT22;37565;51.352;6.412;2023-02-22T00:17:07;19.00;98.40
51486;DHT22;37565;51.352;6.412;2023-02-22T00:19:38;19.00;98.40
51486;DHT22;37565;51.352;6.412;2023-02-22T00:22:07;19.00;98.40
51486;DHT22;37565;51.352;6.412;2023-02-22T00:24:35;19.00;98.40
51486;DHT22;37565;51.352;6.412;2023-02-22T00:27:03;19.00;98.40
51486;DHT22;37565;51.352;6.412;2023-02-22T00:29:31;19.00;98.30
51486;DHT22;37565;51.352;6.412;2023-02-22T00:32:00;19.00;98.00
51486;DHT22;37565;51.352;6.412;2023-02-22T00:34:28;18.80;98.40
51486;DHT22;37565;51.352;6.412;2023-02-22T00:36:56;18.80;98.20
51486;DHT22;37565;51.352;6.412;2023-02-22T00:39:25;18.90;98.00
51486;DHT22;37565;51.352;6.412;2023-02-22T00:41:53;18.90;97.80
51486;DHT22;37565;51.352;6.412;2023-02-22T00:44:21;19.00;97.70
51486;DHT22;37565;51.352;6.412;2023-02-22T00:46:49;19.00;97.70
51486;DHT22;37565;51.352;6.412;2023-02-22T00:49:17;19.00;97.70
51486;DHT22;37565;51.352;6.412;2023-02-22T00:51:45;19.00;97.70
51486;DHT22;37565;51.352;6.412;2023-02-22T00:54:13;19.10;97.70
51486;DHT22;37565;51.352;6.412;2023-02-22T00:56:43;19.00;97.50
51486;DHT22;37565;51.352;6.412;2023-02-22T00:59:11;19.00;97.80
51486;DHT22;37565;51.352;6.412;2023-02-22T01:01:39;19.00;97.90
51486;DHT22;37565;51.352;6.412;2023-02-22T01:04:08;18.90;97.80
51486;DHT22;37565;51.352;6.412;2023-02-22T01:06:36;19.00;97.90
51486;DHT22;37565;51.352;6.412;2023-02-22T01:09:04;19.00;97.70
51486;DHT22;37565;51.352;6.412;2023-02-22T01:11:33;19.00;97.80
51486;DHT22;37565;51.352;6.412;2023-02-22T01:14:02;19.00;97.80
51486;DHT22;37565;51.352;6.412;2023-02-22T01:16:30;19.00;97.80
51486;DHT22;37565;51.352;6.412;2023-02-22T01:18:58;19.00;97.80
51486;DHT22;37565;51.352;6.412;2023-02-22T01:21:26;19.00;97.80
51486;DHT22;37565;51.352;6.412;2023-02-22T01:23:54;18.90;97.90
51486;DHT22;37565;51.352;6.412;2023-02-22T01:26:23;19.00;97.80
51486;DHT22;37565;51.352;6.412;2023-02-22T01:28:51;19.00;98.00
51486;DHT22;37565;51.352;6.412;2023-02-22T01:31:20;19.00;97.80
51486;DHT22;37565;51.352;6.412;2023-02-22T01:33:49;19.00;97.90
51486;DHT22;37565;51.352;6.412;2023-02-22T01:36:17;19.00;97.90
51486;DHT22;37565;51.352;6.412;2023-02-22T01:38:45;19.00;98.00
51486;DHT22;37565;51.352;6.412;2023-02-22T01:41:13;19.00;98.00
51486;DHT22;37565;51.352;6.412;2023-02-22T01:43:44;19.00;98.00
51486;DHT22;37565;51.352;6.412;2023-02-22T01:46:21;19.00;98.00
51486;DHT22;37565;51.352;6.412;2023-02-22T01:48:53;19.00;98.00
51486;DHT22;37565;51.352;6.412;2023-02-22T01:51:24;19.00;98.00
51486;DHT22;37565;51.352;6.412;2023-02-22T01:53:55;18.90;98.00
51486;DHT22;37565;51.352;6.412;2023-02-22T01:56:26;19.00;98.10
51486;DHT22;37565;51.352;6.412;2023-02-22T01:58:58;19.00;98.00
51486;DHT22;37565;51.352;6.412;2023-02-22T02:01:29;18.90;98.10
51486;DHT22;37565;51.352;6.412;2023-02-22T02:04:00;18.90;98.20
51486;DHT22;37565;51.352;6.412;2023-02-22T02:06:32;18.90;98.10
51486;DHT22;37565;51.352;6.412;2023-02-22T02:09:07;18.90;98.10
51486;DHT22;37565;51.352;6.412;2023-02-22T02:11:37;18.90;98.10
51486;DHT22;37565;51.352;6.412;2023-02-22T02:14:08;19.00;98.00
51486;DHT22;37565;51.352;6.412;2023-02-22T17:03:49;18.30;96.10
51486;DHT22;37565;51.352;6.412;2023-02-22T17:06:19;18.40;96.50
51486;DHT22;37565;51.352;6.412;2023-02-22T17:08:47;18.60;96.50
51486;DHT22;37565;51.352;6.412;2023-02-22T17:11:17;18.70;96.60
51486;DHT22;37565;51.352;6.412;2023-02-22T17:13:45;18.80;96.90
51486;DHT22;37565;51.352;6.412;2023-02-22T17:16:17;18.80;97.00
51486;DHT22;37565;51.352;6.412;2023-02-22T17:18:45;18.80;97.00
51486;DHT22;37565;51.352;6.412;2023-02-22T17:21:15;18.90;97.50
51486;DHT22;37565;51.352;6.412;2023-02-22T17:23:43;18.90;97.70
51486;DHT22;37565;51.352;6.412;2023-02-22T17:26:12;18.90;97.90
51486;DHT22;37565;51.352;6.412;2023-02-22T17:28:41;18.90;98.20
51486;DHT22;37565;51.352;6.412;2023-02-22T17:31:17;18.80;98.40
51486;DHT22;37565;51.352;6.412;2023-02-22T17:33:45;18.90;98.40
51486;DHT22;37565;51.352;6.412;2023-02-22T17:36:14;19.00;98.10
51486;DHT22;37565;51.352;6.412;2023-02-22T17:38:43;19.00;98.00
51486;DHT22;37565;51.352;6.412;2023-02-22T17:41:11;19.00;98.30
51486;DHT22;37565;51.352;6.412;2023-02-22T17:43:39;19.00;98.20
51486;DHT22;37565;51.352;6.412;2023-02-22T17:46:07;19.00;98.10
51486;DHT22;37565;51.352;6.412;2023-02-22T17:48:35;19.10;98.10
51486;DHT22;37565;51.352;6.412;2023-02-22T17:51:04;19.00;98.00
51486;DHT22;37565;51.352;6.412;2023-02-22T17:53:34;19.00;98.00
51486;DHT22;37565;51.352;6.412;2023-02-22T17:56:06;19.00;98.00
51486;DHT22;37565;51.352;6.412;2023-02-22T17:58:34;19.00;98.20
51486;DHT22;37565;51.352;6.412;2023-02-22T18:01:02;19.00;98.10
51486;DHT22;37565;51.352;6.412;2023-02-22T18:03:31;18.90;98.30
51486;DHT22;37565;51.352;6.412;2023-02-22T18:05:59;18.90;98.30
51486;DHT22;37565;51.352;6.412;2023-02-22T18:08:28;19.00;98.30
51486;DHT22;37565;51.352;6.412;2023-02-22T18:11:02;19.00;98.40
51486;DHT22;37565;51.352;6.412;2023-02-22T18:13:30;19.00;98.40
51486;DHT22;37565;51.352;6.412;2023-02-22T18:15:58;19.10;98.30
51486;DHT22;37565;51.352;6.412;2023-02-22T18:18:28;19.10;98.20
51486;DHT22;37565;51.352;6.412;2023-02-22T18:20:56;19.10;98.30
51486;DHT22;37565;51.352;6.412;2023-02-22T18:23:27;19.20;98.30
51486;DHT22;37565;51.352;6.412;2023-02-22T18:25:56;19.20;98.40
51486;DHT22;37565;51.352;6.412;2023-02-22T18:28:38;19.20;98.40
51486;DHT22;37565;51.352;6.412;2023-02-22T18:31:07;19.20;98.50
51486;DHT22;37565;51.352;6.412;2023-02-22T18:33:35;19.20;98.60
51486;DHT22;37565;51.352;6.412;2023-02-22T18:36:04;19.20;98.60
51486;DHT22;37565;51.352;6.412;2023-02-22T18:38:32;19.20;98.70
51486;DHT22;37565;51.352;6.412;2023-02-22T18:41:02;19.30;98.60
51486;DHT22;37565;51.352;6.412;2023-02-22T18:43:31;19.30;98.50
51486;DHT22;37565;51.352;6.412;2023-02-22T18:46:09;19.40;98.40
51486;DHT22;37565;51.352;6.412;2023-02-22T18:48:38;19.40;98.40
51486;DHT22;37565;51.352;6.412;2023-02-22T18:51:08;19.40;98.40
51486;DHT22;37565;51.352;6.412;2023-02-22T18:53:36;19.40;98.60
51486;DHT22;37565;51.352;6.412;2023-02-22T18:56:07;19.30;98.50
51486;DHT22;37565;51.352;6.412;2023-02-22T18:58:36;19.30;98.50
51486;DHT22;37565;51.352;6.412;2023-02-22T19:01:06;19.30;98.40
51486;DHT22;37565;51.352;6.412;2023-02-22T19:03:34;19.30;98.30
51486;DHT22;37565;51.352;6.412;2023-02-22T19:06:06;19.30;98.10
51486;DHT22;37565;51.352;6.412;2023-02-22T19:08:35;19.20;98.50
51486;DHT22;37565;51.352;6.412;2023-02-22T19:11:05;19.30;98.90
51486;DHT22;37565;51.352;6.412;2023-02-22T19:13:34;19.30;99.00
51486;DHT22;37565;51.352;6.412;2023-02-22T19:16:03;19.40;98.90
51486;DHT22;37565;51.352;6.412;2023-02-22T19:18:33;19.30;98.90
51486;DHT22;37565;51.352;6.412;2023-02-22T19:21:02;19.30;99.00
51486;DHT22;37565;51.352;6.412;2023-02-22T19:23:34;19.30;99.10
51486;DHT22;37565;51.352;6.412;2023-02-22T19:26:03;19.30;99.20
51486;DHT22;37565;51.352;6.412;2023-02-22T19:28:34;19.30;99.30
51486;DHT22;37565;51.352;6.412;2023-02-22T19:31:12;19.30;99.50
51486;DHT22;37565;51.352;6.412;2023-02-22T19:33:42;19.30;99.50
51486;DHT22;37565;51.352;6.412;2023-02-22T19:36:11;19.30;99.30
51486;DHT22;37565;51.352;6.412;2023-02-22T19:38:40;19.30;99.30
51486;DHT22;37565;51.352;6.412;2023-02-22T19:41:10;19.30;99.40
51486;DHT22;37565;51.352;6.412;2023-02-22T19:43:38;19.30;99.50
51486;DHT22;37565;51.352;6.412;2023-02-22T19:46:06;19.30;99.70
51486;DHT22;37565;51.352;6.412;2023-02-22T19:48:34;19.30;99.50
51486;DHT22;37565;51.352;6.412;2023-02-22T19:51:06;19.30;99.70
51486;DHT22;37565;51.352;6.412;2023-02-22T19:53:35;19.20;99.60
51486;DHT22;37565;51.352;6.412;2023-02-22T19:56:05;19.20;99.60
51486;DHT22;37565;51.352;6.412;2023-02-22T19:58:35;19.30;99.30
51486;DHT22;37565;51.352;6.412;2023-02-22T20:01:10;19.30;99.30
51486;DHT22;37565;51.352;6.412;2023-02-22T20:03:39;19.30;99.30
51486;DHT22;37565;51.352;6.412;2023-02-22T20:06:09;19.30;99.30
51486;DHT22;37565;51.352;6.412;2023-02-22T20:08:38;19.30;99.40
51486;DHT22;37565;51.352;6.412;2023-02-22T20:11:08;19.30;99.40
51486;DHT22;37565;51.352;6.412;2023-02-22T20:13:37;19.30;99.30
51486;DHT22;37565;51.352;6.412;2023-02-22T20:16:05;19.30;99.20
51486;DHT22;37565;51.352;6.412;2023-02-22T20:18:33;19.30;99.10
51486;DHT22;37565;51.352;6.412;2023-02-22T20:21:05;19.40;99.00
51486;DHT22;37565;51.352;6.412;2023-02-22T20:23:35;19.40;98.80
51486;DHT22;37565;51.352;6.412;2023-02-22T20:26:13;19.50;98.80
51486;DHT22;37565;51.352;6.412;2023-02-22T20:28:42;19.50;98.80
51486;DHT22;37565;51.352;6.412;2023-02-22T20:31:10;19.50;98.70
51486;DHT22;37565;51.352;6.412;2023-02-22T20:33:39;19.40;98.70
51486;DHT22;37565;51.352;6.412;2023-02-22T20:36:09;19.50;98.70
51486;DHT22;37565;51.352;6.412;2023-02-22T20:38:38;19.50;98.60
51486;DHT22;37565;51.352;6.412;2023-02-22T20:41:08;19.50;98.70
51486;DHT22;37565;51.352;6.412;2023-02-22T20:43:36;19.50;98.70
51486;DHT22;37565;51.352;6.412;2023-02-22T20:46:05;19.50;98.70
51486;DHT22;37565;51.352;6.412;2023-02-22T20:48:34;19.50;98.70
51486;DHT22;37565;51.352;6.412;2023-02-22T20:51:04;19.40;98.70
51486;DHT22;37565;51.352;6.412;2023-02-22T20:53:32;19.40;98.70
51486;DHT22;37565;51.352;6.412;2023-02-22T20:56:02;19.40;98.70
51486;DHT22;37565;51.352;6.412;2023-02-22T20:58:30;19.30;98.80
51486;DHT22;37565;51.352;6.412;2023-02-22T21:01:03;19.40;98.90
51486;DHT22;37565;51.352;6.412;2023-02-22T21:03:31;19.40;98.80
51486;DHT22;37565;51.352;6.412;2023-02-22T21:05:59;19.30;98.90
51486;DHT22;37565;51.352;6.412;2023-02-22T21:08:27;19.30;99.20
51486;DHT22;37565;51.352;6.412;2023-02-22T21:10:57;19.30;99.10
51486;DHT22;37565;51.352;6.412;2023-02-22T21:13:26;19.30;99.30
51486;DHT22;37565;51.352;6.412;2023-02-22T21:15:54;19.30;99.30
51486;DHT22;37565;51.352;6.412;2023-02-22T21:18:22;19.30;99.30
51486;DHT22;37565;51.352;6.412;2023-02-22T21:20:50;19.30;99.30
51486;DHT22;37565;51.352;6.412;2023-02-22T21:23:19;19.30;99.20
51486;DHT22;37565;51.352;6.412;2023-02-22T21:25:50;19.30;99.30
51486;DHT22;37565;51.352;6.412;2023-02-22T21:28:18;19.40;99.20
51486;DHT22;37565;51.352;6.412;2023-02-22T21:30:47;19.40;99.10
51486;DHT22;37565;51.352;6.412;2023-02-22T21:33:15;19.40;99.10
51486;DHT22;37565;51.352;6.412;2023-02-22T21:35:43;19.50;99.00
51486;DHT22;37565;51.352;6.412;2023-02-22T21:38:13;19.50;99.00
51486;DHT22;37565;51.352;6.412;2023-02-22T21:40:41;19.60;99.00
51486;DHT22;37565;51.352;6.412;2023-02-22T21:43:11;19.60;98.90
51486;DHT22;37565;51.352;6.412;2023-02-22T21:45:39;19.60;98.90
51486;DHT22;37565;51.352;6.412;2023-02-22T21:48:09;19.60;98.90
51486;DHT22;37565;51.352;6.412;2023-02-22T21:50:37;19.60;98.90
51486;DHT22;37565;51.352;6.412;2023-02-22T21:53:04;19.60;98.90
51486;DHT22;37565;51.352;6.412;2023-02-22T21:55:33;19.60;99.10
51486;DHT22;37565;51.352;6.412;2023-02-22T21:58:01;19.50;99.10
51486;DHT22;37565;51.352;6.412;2023-02-22T22:00:29;19.60;98.90
51486;DHT22;37565;51.352;6.412;2023-02-22T22:03:03;19.60;99.10
51486;DHT22;37565;51.352;6.412;2023-02-22T22:05:38;19.60;99.10
51486;DHT22;37565;51.352;6.412;2023-02-22T22:08:11;19.60;99.10
51486;DHT22;37565;51.352;6.412;2023-02-22T22:10:49;19.50;99.10
51486;DHT22;37565;51.352;6.412;2023-02-22T22:13:20;19.50;99.50
51486;DHT22;37565;51.352;6.412;2023-02-22T22:15:49;19.60;99.20
51486;DHT22;37565;51.352;6.412;2023-02-22T22:18:17;19.50;99.20
51486;DHT22;37565;51.352;6.412;2023-02-22T22:20:47;19.50;99.20
51486;DHT22;37565;51.352;6.412;2023-02-22T22:23:17;19.50;99.30
51486;DHT22;37565;51.352;6.412;2023-02-22T22:25:45;19.50;99.40
51486;DHT22;37565;51.352;6.412;2023-02-22T22:28:16;19.50;99.40
51486;DHT22;37565;51.352;6.412;2023-02-22T22:30:44;19.50;99.40
51486;DHT22;37565;51.352;6.412;2023-02-22T22:33:12;19.50;99.40
51486;DHT22;37565;51.352;6.412;2023-02-22T22:35:40;19.50;99.40
51486;DHT22;37565;51.352;6.412;2023-02-22T22:38:10;19.50;99.40
51486;DHT22;37565;51.352;6.412;2023-02-22T22:40:39;19.60;99.30
51486;DHT22;37565;51.352;6.412;2023-02-22T22:43:07;19.50;99.30
51486;DHT22;37565;51.352;6.412;2023-02-22T22:45:36;19.50;99.30
51486;DHT22;37565;51.352;6.412;2023-02-22T22:48:04;19.60;99.20
51486;DHT22;37565;51.352;6.412;2023-02-22T22:50:32;19.50;99.20
51486;DHT22;37565;51.352;6.412;2023-02-22T22:53:00;19.50;99.20
51486;DHT22;37565;51.352;6.412;2023-02-22T22:55:30;19.50;99.20
51486;DHT22;37565;51.352;6.412;2023-02-22T22:57:58;19.50;99.40
51486;DHT22;37565;51.352;6.412;2023-02-22T23:00:26;19.50;99.10
51486;DHT22;37565;51.352;6.412;2023-02-22T23:03:01;19.50;99.30
51486;DHT22;37565;51.352;6.412;2023-02-22T23:05:35;19.50;99.40
51486;DHT22;37565;51.352;6.412;2023-02-22T23:08:04;19.50;99.40
51486;DHT22;37565;51.352;6.412;2023-02-22T23:10:38;19.50;99.30
51486;DHT22;37565;51.352;6.412;2023-02-22T23:13:08;19.50;99.60
51486;DHT22;37565;51.352;6.412;2023-02-22T23:15:40;19.50;99.40
51486;DHT22;37565;51.352;6.412;2023-02-22T23:18:08;19.50;99.30
51486;DHT22;37565;51.352;6.412;2023-02-22T23:20:36;19.50;99.30
51486;DHT22;37565;51.352;6.412;2023-02-22T23:23:04;19.50;99.40
51486;DHT22;37565;51.352;6.412;2023-02-22T23:25:33;19.50;99.40
51486;DHT22;37565;51.352;6.412;2023-02-22T23:28:02;19.50;99.50
51486;DHT22;37565;51.352;6.412;2023-02-22T23:30:30;19.50;99.30
51486;DHT22;37565;51.352;6.412;2023-02-22T23:32:58;19.60;99.10
51486;DHT22;37565;51.352;6.412;2023-02-22T23:35:26;19.60;99.40
